sensor_id;sensor_type;location;lat;lon;timestamp;temperature;humidity
62581;DHT22;48640;48.770;9.148;2023-04-15T00:02:15;7.30;92.10
62581;DHT22;48640;48.770;9.148;2023-04-15T00:04:43;7.30;92.40
62581;DHT22;48640;48.770;9.148;2023-04-15T00:07:10;7.00;92.80
62581;DHT22;48640;48.770;9.148;2023-04-15T00:09:38;7.60;92.70
62581;DHT22;48640;48.770;9.148;2023-04-15T00:12:05;7.40;92.80
62581;DHT22;48640;48.770;9.148;2023-04-15T00:14:33;7.10;93.00
62581;DHT22;48640;48.770;9.148;2023-04-15T00:17:01;7.10;93.20
62581;DHT22;48640;48.770;9.148;2023-04-15T00:19:28;6.80;93.30
62581;DHT22;48640;48.770;9.148;2023-04-15T00:21:55;6.80;93.40
62581;DHT22;48640;48.770;9.148;2023-04-15T00:24:22;7.30;93.70
62581;DHT22;48640;48.770;9.148;2023-04-15T00:26:50;7.30;93.70
62581;DHT22;48640;48.770;9.148;2023-04-15T00:29:17;6.90;93.10
62581;DHT22;48640;48.770;9.148;2023-04-15T00:31:44;7.40;93.30
62581;DHT22;48640;48.770;9.148;2023-04-15T00:34:11;6.80;93.10
62581;DHT22;48640;48.770;9.148;2023-04-15T00:36:38;6.90;93.20
62581;DHT22;48640;48.770;9.148;2023-04-15T00:39:05;7.30;93.40
62581;DHT22;48640;48.770;9.148;2023-04-15T00:41:31;6.60;93.10
62581;DHT22;48640;48.770;9.148;2023-04-15T00:44:00;6.70;93.40
62581;DHT22;48640;48.770;9.148;2023-04-15T00:46:28;7.30;93.70
62581;DHT22;48640;48.770;9.148;2023-04-15T00:48:56;6.50;94.00
62581;DHT22;48640;48.770;9.148;2023-04-15T00:51:23;6.80;94.50
62581;DHT22;48640;48.770;9.148;2023-04-15T00:53:50;7.10;94.70
62581;DHT22;48640;48.770;9.148;2023-04-15T00:56:19;7.00;94.60
62581;DHT22;48640;48.770;9.148;2023-04-15T00:58:49;7.00;94.40
62581;DHT22;48640;48.770;9.148;2023-04-15T01:01:18;6.70;94.20
62581;DHT22;48640;48.770;9.148;2023-04-15T01:03:46;6.50;94.20
62581;DHT22;48640;48.770;9.148;2023-04-15T01:06:14;6.60;94.20
62581;DHT22;48640;48.770;9.148;2023-04-15T01:08:41;6.90;94.40
62581;DHT22;48640;48.770;9.148;2023-04-15T01:11:08;6.40;94.00
62581;DHT22;48640;48.770;9.148;2023-04-15T01:13:36;6.50;94.30
62581;DHT22;48640;48.770;9.148;2023-04-15T01:16:03;6.40;94.20
62581;DHT22;48640;48.770;9.148;2023-04-15T01:18:32;6.50;94.20
62581;DHT22;48640;48.770;9.148;2023-04-15T01:20:59;6.50;94.00
62581;DHT22;48640;48.770;9.148;2023-04-15T01:23:28;6.40;94.00
62581;DHT22;48640;48.770;9.148;2023-04-15T01:25:56;6.50;94.00
62581;DHT22;48640;48.770;9.148;2023-04-15T01:28:24;6.40;94.00
62581;DHT22;48640;48.770;9.148;2023-04-15T01:31:05;6.80;94.50
62581;DHT22;48640;48.770;9.148;2023-04-15T01:33:33;6.30;94.80
62581;DHT22;48640;48.770;9.148;2023-04-15T01:36:00;6.60;95.40
62581;DHT22;48640;48.770;9.148;2023-04-15T01:38:27;6.50;95.60
62581;DHT22;48640;48.770;9.148;2023-04-15T01:40:57;6.60;95.80
62581;DHT22;48640;48.770;9.148;2023-04-15T01:43:24;6.40;95.70
62581;DHT22;48640;48.770;9.148;2023-04-15T01:45:51;6.10;95.20
62581;DHT22;48640;48.770;9.148;2023-04-15T01:48:17;6.30;95.70
62581;DHT22;48640;48.770;9.148;2023-04-15T01:50:45;6.60;95.60
62581;DHT22;48640;48.770;9.148;2023-04-15T01:53:12;6.10;95.30
62581;DHT22;48640;48.770;9.148;2023-04-15T01:55:38;6.00;95.70
62581;DHT22;48640;48.770;9.148;2023-04-15T01:58:07;6.20;96.50
62581;DHT22;48640;48.770;9.148;2023-04-15T02:00:34;6.40;96.50
62581;DHT22;48640;48.770;9.148;2023-04-15T02:03:01;6.20;96.40
62581;DHT22;48640;48.770;9.148;2023-04-15T02:05:28;6.20;96.30
62581;DHT22;48640;48.770;9.148;2023-04-15T02:07:56;6.20;96.70
62581;DHT22;48640;48.770;9.148;2023-04-15T02:10:22;6.20;96.40
62581;DHT22;48640;48.770;9.148;2023-04-15T02:12:49;6.00;96.50
62581;DHT22;48640;48.770;9.148;2023-04-15T02:15:17;6.30;96.70
62581;DHT22;48640;48.770;9.148;2023-04-15T02:17:44;5.90;96.40
62581;DHT22;48640;48.770;9.148;2023-04-15T02:20:15;6.10;96.60
62581;DHT22;48640;48.770;9.148;2023-04-15T02:22:42;5.90;96.40
62581;DHT22;48640;48.770;9.148;2023-04-15T02:25:09;6.20;96.70
62581;DHT22;48640;48.770;9.148;2023-04-15T02:27:36;6.30;96.40
62581;DHT22;48640;48.770;9.148;2023-04-15T02:30:04;6.20;96.50
62581;DHT22;48640;48.770;9.148;2023-04-15T02:32:33;6.30;96.80
62581;DHT22;48640;48.770;9.148;2023-04-15T02:35:02;5.90;96.70
62581;DHT22;48640;48.770;9.148;2023-04-15T02:37:30;6.00;97.10
62581;DHT22;48640;48.770;9.148;2023-04-15T02:40:00;5.70;96.90
62581;DHT22;48640;48.770;9.148;2023-04-15T02:42:27;6.10;97.20
62581;DHT22;48640;48.770;9.148;2023-04-15T02:44:55;5.80;97.30
62581;DHT22;48640;48.770;9.148;2023-04-15T02:47:22;5.90;97.10
62581;DHT22;48640;48.770;9.148;2023-04-15T02:49:51;5.60;96.60
62581;DHT22;48640;48.770;9.148;2023-04-15T02:52:18;5.80;97.00
62581;DHT22;48640;48.770;9.148;2023-04-15T02:54:45;6.10;97.20
62581;DHT22;48640;48.770;9.148;2023-04-15T02:57:12;5.60;97.20
62581;DHT22;48640;48.770;9.148;2023-04-15T02:59:38;6.00;97.70
62581;DHT22;48640;48.770;9.148;2023-04-15T03:02:05;6.10;97.70
62581;DHT22;48640;48.770;9.148;2023-04-15T03:04:33;5.60;97.10
62581;DHT22;48640;48.770;9.148;2023-04-15T03:07:01;5.60;96.90
62581;DHT22;48640;48.770;9.148;2023-04-15T03:09:28;6.00;97.20
62581;DHT22;48640;48.770;9.148;2023-04-15T03:11:54;6.20;97.20
62581;DHT22;48640;48.770;9.148;2023-04-15T03:14:21;5.90;96.80
62581;DHT22;48640;48.770;9.148;2023-04-15T03:16:48;6.00;96.90
62581;DHT22;48640;48.770;9.148;2023-04-15T03:19:16;6.00;97.20
62581;DHT22;48640;48.770;9.148;2023-04-15T03:21:43;6.00;97.10
62581;DHT22;48640;48.770;9.148;2023-04-15T03:24:11;5.60;97.30
62581;DHT22;48640;48.770;9.148;2023-04-15T03:26:38;5.90;97.60
62581;DHT22;48640;48.770;9.148;2023-04-15T03:29:05;5.90;97.50
62581;DHT22;48640;48.770;9.148;2023-04-15T03:31:32;6.00;97.50
62581;DHT22;48640;48.770;9.148;2023-04-15T03:33:59;5.90;97.50
62581;DHT22;48640;48.770;9.148;2023-04-15T03:36:29;5.40;97.30
62581;DHT22;48640;48.770;9.148;2023-04-15T03:38:57;5.70;97.80
62581;DHT22;48640;48.770;9.148;2023-04-15T03:41:25;5.40;97.90
62581;DHT22;48640;48.770;9.148;2023-04-15T03:43:53;5.30;97.70
62581;DHT22;48640;48.770;9.148;2023-04-15T03:46:20;5.60;98.00
62581;DHT22;48640;48.770;9.148;2023-04-15T03:48:47;5.40;97.70
62581;DHT22;48640;48.770;9.148;2023-04-15T03:51:13;6.00;97.70
62581;DHT22;48640;48.770;9.148;2023-04-15T03:53:40;5.50;97.20
62581;DHT22;48640;48.770;9.148;2023-04-15T03:56:07;5.60;97.30
62581;DHT22;48640;48.770;9.148;2023-04-15T03:58:35;5.80;97.90
62581;DHT22;48640;48.770;9.148;2023-04-15T04:01:02;5.30;97.60
62581;DHT22;48640;48.770;9.148;2023-04-15T04:03:29;5.40;97.60
62581;DHT22;48640;48.770;9.148;2023-04-15T04:05:56;5.20;98.00
62581;DHT22;48640;48.770;9.148;2023-04-15T04:08:23;5.40;98.30
62581;DHT22;48640;48.770;9.148;2023-04-15T04:10:50;5.10;98.40
62581;DHT22;48640;48.770;9.148;2023-04-15T04:13:16;5.50;98.80
62581;DHT22;48640;48.770;9.148;2023-04-15T04:15:45;5.60;99.00
62581;DHT22;48640;48.770;9.148;2023-04-15T04:18:12;5.60;99.10
62581;DHT22;48640;48.770;9.148;2023-04-15T04:20:38;5.70;99.10
62581;DHT22;48640;48.770;9.148;2023-04-15T04:23:05;5.20;98.80
62581;DHT22;48640;48.770;9.148;2023-04-15T04:25:32;5.70;98.90
62581;DHT22;48640;48.770;9.148;2023-04-15T04:27:59;5.70;98.80
62581;DHT22;48640;48.770;9.148;2023-04-15T04:30:26;5.30;98.30
62581;DHT22;48640;48.770;9.148;2023-04-15T04:32:54;5.10;98.50
62581;DHT22;48640;48.770;9.148;2023-04-15T04:35:21;5.10;98.30
62581;DHT22;48640;48.770;9.148;2023-04-15T04:37:48;5.00;98.50
62581;DHT22;48640;48.770;9.148;2023-04-15T04:40:15;5.20;98.80
62581;DHT22;48640;48.770;9.148;2023-04-15T04:42:42;5.50;99.10
62581;DHT22;48640;48.770;9.148;2023-04-15T04:45:09;5.10;98.90
62581;DHT22;48640;48.770;9.148;2023-04-15T04:47:36;5.50;99.10
62581;DHT22;48640;48.770;9.148;2023-04-15T04:50:06;5.60;99.00
62581;DHT22;48640;48.770;9.148;2023-04-15T04:52:33;5.50;99.10
62581;DHT22;48640;48.770;9.148;2023-04-15T04:55:00;4.90;99.00
62581;DHT22;48640;48.770;9.148;2023-04-15T04:57:27;5.60;99.50
62581;DHT22;48640;48.770;9.148;2023-04-15T04:59:54;5.20;99.30
62581;DHT22;48640;48.770;9.148;2023-04-15T05:02:21;5.00;99.00
62581;DHT22;48640;48.770;9.148;2023-04-15T05:04:47;5.20;99.10
62581;DHT22;48640;48.770;9.148;2023-04-15T05:07:16;5.20;98.90
62581;DHT22;48640;48.770;9.148;2023-04-15T05:09:43;5.40;98.90
62581;DHT22;48640;48.770;9.148;2023-04-15T05:12:09;6.00;99.20
62581;DHT22;48640;48.770;9.148;2023-04-15T05:14:39;5.40;99.00
62581;DHT22;48640;48.770;9.148;2023-04-15T05:17:06;5.40;98.90
62581;DHT22;48640;48.770;9.148;2023-04-15T05:19:33;5.70;99.10
62581;DHT22;48640;48.770;9.148;2023-04-15T05:22:00;5.20;98.80
62581;DHT22;48640;48.770;9.148;2023-04-15T05:24:28;5.80;99.10
62581;DHT22;48640;48.770;9.148;2023-04-15T05:26:55;5.70;98.80
62581;DHT22;48640;48.770;9.148;2023-04-15T05:29:22;5.90;98.90
62581;DHT22;48640;48.770;9.148;2023-04-15T05:31:49;6.00;98.80
62581;DHT22;48640;48.770;9.148;2023-04-15T05:34:16;5.60;98.50
62581;DHT22;48640;48.770;9.148;2023-04-15T05:36:43;6.20;98.20
62581;DHT22;48640;48.770;9.148;2023-04-15T05:39:10;5.90;97.90
62581;DHT22;48640;48.770;9.148;2023-04-15T05:41:38;6.10;97.60
62581;DHT22;48640;48.770;9.148;2023-04-15T05:44:05;6.40;97.00
62581;DHT22;48640;48.770;9.148;2023-04-15T05:46:32;6.90;96.50
62581;DHT22;48640;48.770;9.148;2023-04-15T05:48:59;6.40;95.90
62581;DHT22;48640;48.770;9.148;2023-04-15T05:51:26;6.90;96.20
62581;DHT22;48640;48.770;9.148;2023-04-15T05:53:53;6.90;96.40
62581;DHT22;48640;48.770;9.148;2023-04-15T05:56:20;6.70;96.30
62581;DHT22;48640;48.770;9.148;2023-04-15T05:58:48;7.00;95.60
62581;DHT22;48640;48.770;9.148;2023-04-15T06:01:15;7.50;95.60
62581;DHT22;48640;48.770;9.148;2023-04-15T06:03:42;7.80;94.50
62581;DHT22;48640;48.770;9.148;2023-04-15T06:06:09;8.30;93.90
62581;DHT22;48640;48.770;9.148;2023-04-15T06:08:36;8.60;92.30
62581;DHT22;48640;48.770;9.148;2023-04-15T06:11:03;9.00;91.80
62581;DHT22;48640;48.770;9.148;2023-04-15T06:13:30;10.10;86.80
62581;DHT22;48640;48.770;9.148;2023-04-15T06:15:58;10.40;83.40
62581;DHT22;48640;48.770;9.148;2023-04-15T06:18:25;10.60;79.90
62581;DHT22;48640;48.770;9.148;2023-04-15T06:20:52;11.10;79.30
62581;DHT22;48640;48.770;9.148;2023-04-15T06:23:19;11.20;78.40
62581;DHT22;48640;48.770;9.148;2023-04-15T06:25:48;11.10;76.60
62581;DHT22;48640;48.770;9.148;2023-04-15T06:28:16;11.10;76.00
62581;DHT22;48640;48.770;9.148;2023-04-15T06:30:42;10.20;75.70
62581;DHT22;48640;48.770;9.148;2023-04-15T06:33:11;10.30;75.40
62581;DHT22;48640;48.770;9.148;2023-04-15T06:35:38;10.40;75.50
62581;DHT22;48640;48.770;9.148;2023-04-15T06:38:05;10.30;74.10
62581;DHT22;48640;48.770;9.148;2023-04-15T06:40:32;10.80;75.70
62581;DHT22;48640;48.770;9.148;2023-04-15T06:42:59;11.20;73.30
62581;DHT22;48640;48.770;9.148;2023-04-15T06:45:26;11.50;73.30
62581;DHT22;48640;48.770;9.148;2023-04-15T06:47:53;11.50;71.40
62581;DHT22;48640;48.770;9.148;2023-04-15T06:50:21;11.50;71.60
62581;DHT22;48640;48.770;9.148;2023-04-15T06:52:48;11.50;70.70
62581;DHT22;48640;48.770;9.148;2023-04-15T06:55:15;11.40;68.80
62581;DHT22;48640;48.770;9.148;2023-04-15T06:57:42;11.80;69.80
62581;DHT22;48640;48.770;9.148;2023-04-15T07:00:10;11.90;69.90
62581;DHT22;48640;48.770;9.148;2023-04-15T07:02:37;11.80;70.20
62581;DHT22;48640;48.770;9.148;2023-04-15T07:05:05;11.50;71.00
62581;DHT22;48640;48.770;9.148;2023-04-15T07:07:34;12.00;69.20
62581;DHT22;48640;48.770;9.148;2023-04-15T07:10:01;12.30;67.20
62581;DHT22;48640;48.770;9.148;2023-04-15T07:12:28;11.90;66.10
62581;DHT22;48640;48.770;9.148;2023-04-15T07:14:55;12.40;65.60
62581;DHT22;48640;48.770;9.148;2023-04-15T07:17:22;12.60;64.20
62581;DHT22;48640;48.770;9.148;2023-04-15T07:19:49;13.10;63.80
62581;DHT22;48640;48.770;9.148;2023-04-15T07:22:16;12.70;61.90
62581;DHT22;48640;48.770;9.148;2023-04-15T07:24:45;12.40;62.30
62581;DHT22;48640;48.770;9.148;2023-04-15T07:27:12;13.10;63.20
62581;DHT22;48640;48.770;9.148;2023-04-15T07:29:39;13.50;61.50
62581;DHT22;48640;48.770;9.148;2023-04-15T07:32:06;13.40;61.30
62581;DHT22;48640;48.770;9.148;2023-04-15T07:34:32;13.10;62.20
62581;DHT22;48640;48.770;9.148;2023-04-15T07:36:59;13.40;62.70
62581;DHT22;48640;48.770;9.148;2023-04-15T07:39:26;13.80;60.30
62581;DHT22;48640;48.770;9.148;2023-04-15T07:41:55;14.20;59.30
62581;DHT22;48640;48.770;9.148;2023-04-15T07:44:23;13.90;59.40
62581;DHT22;48640;48.770;9.148;2023-04-15T07:46:50;13.40;58.90
62581;DHT22;48640;48.770;9.148;2023-04-15T07:49:17;13.00;59.60
62581;DHT22;48640;48.770;9.148;2023-04-15T07:51:45;12.50;60.50
62581;DHT22;48640;48.770;9.148;2023-04-15T07:54:13;12.40;62.40
62581;DHT22;48640;48.770;9.148;2023-04-15T07:56:40;12.60;62.00
62581;DHT22;48640;48.770;9.148;2023-04-15T07:59:08;12.80;62.10
62581;DHT22;48640;48.770;9.148;2023-04-15T08:01:36;13.00;62.10
62581;DHT22;48640;48.770;9.148;2023-04-15T08:04:03;13.10;62.20
62581;DHT22;48640;48.770;9.148;2023-04-15T08:06:30;12.90;63.50
62581;DHT22;48640;48.770;9.148;2023-04-15T08:08:57;12.70;63.80
62581;DHT22;48640;48.770;9.148;2023-04-15T08:11:24;13.60;62.20
62581;DHT22;48640;48.770;9.148;2023-04-15T08:13:51;14.20;59.80
62581;DHT22;48640;48.770;9.148;2023-04-15T08:16:21;14.90;58.00
62581;DHT22;48640;48.770;9.148;2023-04-15T08:18:50;16.10;56.20
62581;DHT22;48640;48.770;9.148;2023-04-15T08:21:18;17.30;52.00
62581;DHT22;48640;48.770;9.148;2023-04-15T08:23:46;17.60;50.20
62581;DHT22;48640;48.770;9.148;2023-04-15T08:26:13;17.70;49.60
62581;DHT22;48640;48.770;9.148;2023-04-15T08:28:41;18.30;48.00
62581;DHT22;48640;48.770;9.148;2023-04-15T08:31:08;17.50;48.60
62581;DHT22;48640;48.770;9.148;2023-04-15T08:33:37;17.50;49.40
62581;DHT22;48640;48.770;9.148;2023-04-15T08:36:04;16.20;48.60
62581;DHT22;48640;48.770;9.148;2023-04-15T08:38:32;15.60;50.80
62581;DHT22;48640;48.770;9.148;2023-04-15T08:41:00;15.90;52.50
62581;DHT22;48640;48.770;9.148;2023-04-15T08:43:33;17.20;49.90
62581;DHT22;48640;48.770;9.148;2023-04-15T08:46:01;17.80;48.90
62581;DHT22;48640;48.770;9.148;2023-04-15T08:48:32;19.20;47.60
62581;DHT22;48640;48.770;9.148;2023-04-15T08:51:00;20.40;42.90
62581;DHT22;48640;48.770;9.148;2023-04-15T08:53:28;20.40;41.80
62581;DHT22;48640;48.770;9.148;2023-04-15T08:55:57;19.60;42.30
62581;DHT22;48640;48.770;9.148;2023-04-15T08:58:25;19.60;42.30
62581;DHT22;48640;48.770;9.148;2023-04-15T09:00:53;20.30;41.00
62581;DHT22;48640;48.770;9.148;2023-04-15T09:03:20;21.30;40.20
62581;DHT22;48640;48.770;9.148;2023-04-15T09:05:49;21.20;37.60
62581;DHT22;48640;48.770;9.148;2023-04-15T09:08:17;19.50;40.50
62581;DHT22;48640;48.770;9.148;2023-04-15T09:10:44;19.40;41.40
62581;DHT22;48640;48.770;9.148;2023-04-15T09:13:11;19.50;42.20
62581;DHT22;48640;48.770;9.148;2023-04-15T09:15:38;21.40;39.00
62581;DHT22;48640;48.770;9.148;2023-04-15T09:18:05;22.60;35.50
62581;DHT22;48640;48.770;9.148;2023-04-15T09:20:38;22.80;35.50
62581;DHT22;48640;48.770;9.148;2023-04-15T09:23:11;23.30;35.40
62581;DHT22;48640;48.770;9.148;2023-04-15T09:25:40;24.00;35.00
62581;DHT22;48640;48.770;9.148;2023-04-15T09:28:07;24.30;31.60
62581;DHT22;48640;48.770;9.148;2023-04-15T09:30:34;24.10;32.40
62581;DHT22;48640;48.770;9.148;2023-04-15T09:33:03;23.90;32.20
62581;DHT22;48640;48.770;9.148;2023-04-15T09:35:33;23.30;33.90
62581;DHT22;48640;48.770;9.148;2023-04-15T09:38:04;23.60;32.70
62581;DHT22;48640;48.770;9.148;2023-04-15T09:40:33;23.20;33.60
62581;DHT22;48640;48.770;9.148;2023-04-15T09:43:02;23.20;33.50
62581;DHT22;48640;48.770;9.148;2023-04-15T09:45:30;23.00;32.60
62581;DHT22;48640;48.770;9.148;2023-04-15T09:47:57;22.10;34.00
62581;DHT22;48640;48.770;9.148;2023-04-15T09:50:26;21.60;34.30
62581;DHT22;48640;48.770;9.148;2023-04-15T09:52:54;22.00;35.00
62581;DHT22;48640;48.770;9.148;2023-04-15T09:55:22;21.30;35.60
62581;DHT22;48640;48.770;9.148;2023-04-15T09:57:48;20.80;37.10
62581;DHT22;48640;48.770;9.148;2023-04-15T10:00:17;20.50;36.90
62581;DHT22;48640;48.770;9.148;2023-04-15T10:02:45;20.20;36.70
62581;DHT22;48640;48.770;9.148;2023-04-15T10:05:14;19.90;37.60
62581;DHT22;48640;48.770;9.148;2023-04-15T10:07:41;19.50;37.90
62581;DHT22;48640;48.770;9.148;2023-04-15T10:10:10;18.80;39.40
62581;DHT22;48640;48.770;9.148;2023-04-15T10:12:37;18.20;39.90
62581;DHT22;48640;48.770;9.148;2023-04-15T10:15:13;17.80;40.50
62581;DHT22;48640;48.770;9.148;2023-04-15T10:17:43;17.90;40.40
62581;DHT22;48640;48.770;9.148;2023-04-15T10:20:10;18.10;39.70
62581;DHT22;48640;48.770;9.148;2023-04-15T10:22:39;17.60;40.30
62581;DHT22;48640;48.770;9.148;2023-04-15T10:25:08;17.60;41.80
62581;DHT22;48640;48.770;9.148;2023-04-15T10:27:36;17.40;42.10
62581;DHT22;48640;48.770;9.148;2023-04-15T10:30:06;16.80;41.70
62581;DHT22;48640;48.770;9.148;2023-04-15T10:32:33;16.60;41.90
62581;DHT22;48640;48.770;9.148;2023-04-15T10:35:04;16.60;42.30
62581;DHT22;48640;48.770;9.148;2023-04-15T10:37:34;16.90;43.30
62581;DHT22;48640;48.770;9.148;2023-04-15T10:40:23;17.40;42.40
62581;DHT22;48640;48.770;9.148;2023-04-15T10:42:50;17.40;42.00
62581;DHT22;48640;48.770;9.148;2023-04-15T10:45:18;17.60;42.40
62581;DHT22;48640;48.770;9.148;2023-04-15T10:47:45;18.10;41.60
62581;DHT22;48640;48.770;9.148;2023-04-15T10:50:13;18.60;42.50
62581;DHT22;48640;48.770;9.148;2023-04-15T10:52:40;19.40;41.30
62581;DHT22;48640;48.770;9.148;2023-04-15T10:55:13;20.00;38.50
62581;DHT22;48640;48.770;9.148;2023-04-15T10:57:41;20.40;38.50
62581;DHT22;48640;48.770;9.148;2023-04-15T11:00:12;19.50;37.90
62581;DHT22;48640;48.770;9.148;2023-04-15T11:02:45;18.00;40.40
62581;DHT22;48640;48.770;9.148;2023-04-15T11:05:14;17.30;40.80
62581;DHT22;48640;48.770;9.148;2023-04-15T11:07:50;16.50;42.40
62581;DHT22;48640;48.770;9.148;2023-04-15T11:10:50;15.80;43.00
62581;DHT22;48640;48.770;9.148;2023-04-15T11:13:27;15.50;44.70
62581;DHT22;48640;48.770;9.148;2023-04-15T11:15:57;15.20;45.10
62581;DHT22;48640;48.770;9.148;2023-04-15T11:18:29;15.40;45.80
62581;DHT22;48640;48.770;9.148;2023-04-15T11:20:59;15.30;46.00
62581;DHT22;48640;48.770;9.148;2023-04-15T11:23:29;15.50;46.20
62581;DHT22;48640;48.770;9.148;2023-04-15T11:25:56;17.00;45.00
62581;DHT22;48640;48.770;9.148;2023-04-15T11:28:25;18.10;42.30
62581;DHT22;48640;48.770;9.148;2023-04-15T11:30:52;18.20;41.30
62581;DHT22;48640;48.770;9.148;2023-04-15T11:33:20;18.10;40.90
62581;DHT22;48640;48.770;9.148;2023-04-15T11:35:48;17.80;40.00
62581;DHT22;48640;48.770;9.148;2023-04-15T11:38:16;17.70;41.40
62581;DHT22;48640;48.770;9.148;2023-04-15T11:40:44;17.90;41.20
62581;DHT22;48640;48.770;9.148;2023-04-15T11:43:12;17.80;41.10
62581;DHT22;48640;48.770;9.148;2023-04-15T11:45:48;17.90;41.30
62581;DHT22;48640;48.770;9.148;2023-04-15T11:48:16;17.80;41.70
62581;DHT22;48640;48.770;9.148;2023-04-15T11:50:42;17.10;43.00
62581;DHT22;48640;48.770;9.148;2023-04-15T11:53:11;16.80;44.40
62581;DHT22;48640;48.770;9.148;2023-04-15T11:55:44;16.20;46.90
62581;DHT22;48640;48.770;9.148;2023-04-15T11:58:12;15.70;48.30
62581;DHT22;48640;48.770;9.148;2023-04-15T12:00:42;15.50;49.00
62581;DHT22;48640;48.770;9.148;2023-04-15T12:03:20;15.30;48.50
62581;DHT22;48640;48.770;9.148;2023-04-15T12:06:05;15.30;48.80
62581;DHT22;48640;48.770;9.148;2023-04-15T12:09:07;16.00;49.40
62581;DHT22;48640;48.770;9.148;2023-04-15T12:11:40;16.30;47.20
62581;DHT22;48640;48.770;9.148;2023-04-15T12:14:10;16.30;46.90
62581;DHT22;48640;48.770;9.148;2023-04-15T12:16:39;16.00;47.00
62581;DHT22;48640;48.770;9.148;2023-04-15T12:19:09;16.40;45.50
62581;DHT22;48640;48.770;9.148;2023-04-15T12:21:38;17.00;44.90
62581;DHT22;48640;48.770;9.148;2023-04-15T12:24:09;16.80;44.30
62581;DHT22;48640;48.770;9.148;2023-04-15T12:26:42;17.00;44.10
62581;DHT22;48640;48.770;9.148;2023-04-15T12:29:10;17.30;43.50
62581;DHT22;48640;48.770;9.148;2023-04-15T12:31:46;17.20;42.80
62581;DHT22;48640;48.770;9.148;2023-04-15T12:34:13;16.90;44.30
62581;DHT22;48640;48.770;9.148;2023-04-15T12:36:41;17.00;46.10
62581;DHT22;48640;48.770;9.148;2023-04-15T12:39:08;15.90;46.90
62581;DHT22;48640;48.770;9.148;2023-04-15T12:41:34;15.80;48.90
62581;DHT22;48640;48.770;9.148;2023-04-15T12:44:03;14.80;51.00
62581;DHT22;48640;48.770;9.148;2023-04-15T12:46:30;14.30;54.10
62581;DHT22;48640;48.770;9.148;2023-04-15T12:48:57;14.30;57.50
62581;DHT22;48640;48.770;9.148;2023-04-15T12:51:24;14.10;59.20
62581;DHT22;48640;48.770;9.148;2023-04-15T12:53:51;14.10;60.90
62581;DHT22;48640;48.770;9.148;2023-04-15T12:56:18;13.70;62.30
62581;DHT22;48640;48.770;9.148;2023-04-15T12:58:45;13.30;65.00
62581;DHT22;48640;48.770;9.148;2023-04-15T13:01:13;13.70;66.80
62581;DHT22;48640;48.770;9.148;2023-04-15T13:03:40;13.10;64.80
62581;DHT22;48640;48.770;9.148;2023-04-15T13:06:07;13.20;65.80
62581;DHT22;48640;48.770;9.148;2023-04-15T13:08:33;13.40;65.50
62581;DHT22;48640;48.770;9.148;2023-04-15T13:11:00;13.30;62.10
62581;DHT22;48640;48.770;9.148;2023-04-15T13:13:27;13.80;59.70
62581;DHT22;48640;48.770;9.148;2023-04-15T13:15:56;13.70;59.60
62581;DHT22;48640;48.770;9.148;2023-04-15T13:18:25;13.60;57.60
62581;DHT22;48640;48.770;9.148;2023-04-15T13:20:51;13.60;58.30
62581;DHT22;48640;48.770;9.148;2023-04-15T13:23:19;13.80;58.90
62581;DHT22;48640;48.770;9.148;2023-04-15T13:25:46;13.80;56.30
62581;DHT22;48640;48.770;9.148;2023-04-15T13:28:13;14.40;55.70
62581;DHT22;48640;48.770;9.148;2023-04-15T13:30:40;14.50;55.40
62581;DHT22;48640;48.770;9.148;2023-04-15T13:33:08;14.30;54.50
62581;DHT22;48640;48.770;9.148;2023-04-15T13:35:53;14.30;55.20
62581;DHT22;48640;48.770;9.148;2023-04-15T13:38:19;14.10;52.60
62581;DHT22;48640;48.770;9.148;2023-04-15T13:40:46;14.10;53.60
62581;DHT22;48640;48.770;9.148;2023-04-15T13:43:16;14.40;52.50
62581;DHT22;48640;48.770;9.148;2023-04-15T13:45:43;14.60;51.70
62581;DHT22;48640;48.770;9.148;2023-04-15T13:48:09;14.60;50.10
62581;DHT22;48640;48.770;9.148;2023-04-15T13:50:38;14.70;48.60
62581;DHT22;48640;48.770;9.148;2023-04-15T13:53:11;14.40;48.30
62581;DHT22;48640;48.770;9.148;2023-04-15T13:55:41;14.80;46.60
62581;DHT22;48640;48.770;9.148;2023-04-15T13:58:14;14.70;47.20
62581;DHT22;48640;48.770;9.148;2023-04-15T14:00:44;14.80;46.20
62581;DHT22;48640;48.770;9.148;2023-04-15T14:03:11;14.60;46.00
62581;DHT22;48640;48.770;9.148;2023-04-15T14:05:38;15.00;45.60
62581;DHT22;48640;48.770;9.148;2023-04-15T14:08:08;15.00;45.60
62581;DHT22;48640;48.770;9.148;2023-04-15T14:11:06;14.90;45.10
62581;DHT22;48640;48.770;9.148;2023-04-15T14:13:35;14.80;44.60
62581;DHT22;48640;48.770;9.148;2023-04-15T14:16:05;14.40;45.00
62581;DHT22;48640;48.770;9.148;2023-04-15T14:18:35;14.60;45.60
62581;DHT22;48640;48.770;9.148;2023-04-15T14:21:03;14.20;44.70
62581;DHT22;48640;48.770;9.148;2023-04-15T14:23:34;14.20;42.20
62581;DHT22;48640;48.770;9.148;2023-04-15T14:26:13;13.90;41.90
62581;DHT22;48640;48.770;9.148;2023-04-15T14:28:48;13.40;42.50
62581;DHT22;48640;48.770;9.148;2023-04-15T14:31:18;13.80;43.50
62581;DHT22;48640;48.770;9.148;2023-04-15T14:33:45;13.80;44.50
62581;DHT22;48640;48.770;9.148;2023-04-15T14:36:55;13.70;44.80
62581;DHT22;48640;48.770;9.148;2023-04-15T14:39:31;13.60;45.20
62581;DHT22;48640;48.770;9.148;2023-04-15T14:42:10;13.50;45.80
62581;DHT22;48640;48.770;9.148;2023-04-15T14:44:40;13.20;46.00
62581;DHT22;48640;48.770;9.148;2023-04-15T14:47:09;13.20;46.10
62581;DHT22;48640;48.770;9.148;2023-04-15T14:49:36;13.40;47.00
62581;DHT22;48640;48.770;9.148;2023-04-15T14:52:02;13.40;47.10
62581;DHT22;48640;48.770;9.148;2023-04-15T14:54:29;12.80;46.90
62581;DHT22;48640;48.770;9.148;2023-04-15T14:56:59;12.80;47.70
62581;DHT22;48640;48.770;9.148;2023-04-15T14:59:28;12.90;48.60
62581;DHT22;48640;48.770;9.148;2023-04-15T15:01:55;12.50;48.90
62581;DHT22;48640;48.770;9.148;2023-04-15T15:07:41;12.60;50.10
62581;DHT22;48640;48.770;9.148;2023-04-15T15:10:08;12.80;51.30
62581;DHT22;48640;48.770;9.148;2023-04-15T15:12:35;12.50;51.60
62581;DHT22;48640;48.770;9.148;2023-04-15T15:15:04;12.50;52.60
62581;DHT22;48640;48.770;9.148;2023-04-15T15:17:31;12.40;53.20
62581;DHT22;48640;48.770;9.148;2023-04-15T15:19:57;11.90;53.40
62581;DHT22;48640;48.770;9.148;2023-04-15T15:22:24;11.70;54.10
62581;DHT22;48640;48.770;9.148;2023-04-15T15:24:51;11.70;54.80
62581;DHT22;48640;48.770;9.148;2023-04-15T15:27:18;12.10;55.40
62581;DHT22;48640;48.770;9.148;2023-04-15T15:29:45;11.90;55.90
62581;DHT22;48640;48.770;9.148;2023-04-15T15:32:14;12.00;56.20
62581;DHT22;48640;48.770;9.148;2023-04-15T15:34:41;12.00;56.50
62581;DHT22;48640;48.770;9.148;2023-04-15T15:37:08;11.60;56.70
62581;DHT22;48640;48.770;9.148;2023-04-15T15:39:35;11.90;56.80
62581;DHT22;48640;48.770;9.148;2023-04-15T15:42:02;12.20;58.40
62581;DHT22;48640;48.770;9.148;2023-04-15T15:44:28;12.50;57.10
62581;DHT22;48640;48.770;9.148;2023-04-15T15:46:55;11.90;57.20
62581;DHT22;48640;48.770;9.148;2023-04-15T15:49:23;12.30;57.40